Terminal Aerodrome Forecast
Issued by NWS Mt. Holly, NJ

Home | Current Version | Previous Version | Text Only | Print | Product List | Glossary On
Versions: 1 2 3 4 5 6 7 8 9 10 11 12 13 14 15 16 17 18 19 20 21 22 23 24 25 26 27
000
FTAK31 PANC 261847 AAA
TAFABE
TAF AMD
PABE 261847Z 2619/2718 18010KT 6SM -SHRA BR BKN015 OVC025
      TEMPO 2619/2621 OVC005
     FM270000 20010KT P6SM VCSH SCT015 BKN035 OVC050
     FM270400 20006KT P6SM SCT035 BKN050=

USA.gov is the U.S. government's official web portal to all federal, state and local government web resources and services.